Time;durP1;ratioP1;P1;durP2;ratioP2;P2;SDS_P1;SDS_P2;PMS_P1;PMS_P2;Temp;Humidity;BMP_temperature;BMP_pressure;BME280_temperature;BME280_humidity;BME280_pressure;Samples;Min_cycle;Max_cycle;Signal;HPM_P1;HPM_P2
2020/12/07 00:01:44;;;;;;;27.97;12.87;;;4.90;89.30;;;;;;5053839;28;20056;-81
2020/12/07 00:04:10;;;;;;;30.70;12.97;;;4.90;89.40;;;;;;5054086;28;20528;-84
2020/12/07 00:06:35;;;;;;;27.20;12.80;;;4.90;89.30;;;;;;5040107;28;20037;-81
2020/12/07 00:09:01;;;;;;;26.57;11.70;;;4.80;89.40;;;;;;5040582;28;20029;-81
2020/12/07 00:11:27;;;;;;;25.77;11.70;;;4.90;89.40;;;;;;5054670;28;20528;-81
2020/12/07 00:13:52;;;;;;;23.23;12.07;;;4.80;89.20;;;;;;5054616;28;20037;-81
2020/12/07 00:16:18;;;;;;;29.60;12.10;;;4.90;89.00;;;;;;5052286;28;20025;-81
2020/12/07 00:18:44;;;;;;;24.60;11.93;;;4.90;88.40;;;;;;5053947;28;20182;-81
2020/12/07 00:21:10;;;;;;;24.30;11.43;;;4.90;88.40;;;;;;5053871;28;20056;-81
2020/12/07 00:23:36;;;;;;;24.37;10.70;;;4.80;88.40;;;;;;5054504;28;20024;-81
2020/12/07 00:26:05;;;;;;;25.30;11.60;;;4.90;88.50;;;;;;5052986;28;20073;-81
2020/12/07 00:28:31;;;;;;;23.57;11.17;;;4.80;88.20;;;;;;5052772;28;20195;-81
2020/12/07 00:30:56;;;;;;;22.07;10.90;;;4.80;88.50;;;;;;5054013;28;20454;-81
2020/12/07 00:33:22;;;;;;;26.20;11.33;;;4.80;88.40;;;;;;5053027;28;20033;-82
2020/12/07 00:35:48;;;;;;;23.70;10.47;;;4.70;88.30;;;;;;5053590;28;20028;-82
2020/12/07 00:38:13;;;;;;;23.97;11.20;;;4.80;88.60;;;;;;5052815;28;20025;-82
2020/12/07 00:40:39;;;;;;;23.60;11.13;;;4.80;88.50;;;;;;5053310;28;20025;-82
2020/12/07 00:43:05;;;;;;;26.03;11.17;;;4.80;88.30;;;;;;5054353;28;20025;-82
2020/12/07 00:45:31;;;;;;;24.33;10.40;;;4.70;88.00;;;;;;5052808;28;20025;-82
2020/12/07 00:47:56;;;;;;;24.63;11.67;;;4.70;88.00;;;;;;5053185;28;20036;-82
2020/12/07 00:50:22;;;;;;;25.27;10.87;;;4.70;88.10;;;;;;5053748;28;20025;-81
2020/12/07 00:52:48;;;;;;;27.20;11.13;;;4.70;88.10;;;;;;5053500;28;20032;-81
2020/12/07 00:55:14;;;;;;;24.30;10.83;;;4.60;88.00;;;;;;5053961;28;20036;-82
2020/12/07 00:57:39;;;;;;;23.57;10.90;;;4.60;88.20;;;;;;5054038;28;20378;-81
2020/12/07 01:00:07;;;;;;;22.73;10.87;;;4.60;88.20;;;;;;5053203;28;20481;-81
2020/12/07 01:02:33;;;;;;;23.40;10.23;;;4.70;88.30;;;;;;5052616;28;20083;-81
2020/12/07 01:04:59;;;;;;;25.73;11.37;;;4.60;88.20;;;;;;5052817;28;20086;-81
2020/12/07 01:07:25;;;;;;;24.60;10.97;;;4.70;88.00;;;;;;5052806;28;20033;-81
2020/12/07 01:09:50;;;;;;;23.60;10.37;;;4.70;88.60;;;;;;5053021;28;20469;-81
2020/12/07 01:12:16;;;;;;;24.00;10.97;;;4.70;87.80;;;;;;5053599;28;20035;-82
2020/12/07 01:14:42;;;;;;;24.67;11.83;;;4.60;87.60;;;;;;5053223;28;20036;-80
2020/12/07 01:17:08;;;;;;;22.60;10.57;;;4.60;87.80;;;;;;5053147;28;20037;-81
2020/12/07 01:19:33;;;;;;;26.57;12.00;;;4.60;88.00;;;;;;5052696;28;20505;-81
2020/12/07 01:21:59;;;;;;;26.17;11.23;;;4.60;87.80;;;;;;5053819;28;20025;-81
2020/12/07 01:24:25;;;;;;;22.53;11.10;;;4.60;87.60;;;;;;5052480;28;20033;-82
2020/12/07 01:26:50;;;;;;;25.70;12.10;;;4.70;87.50;;;;;;5057574;28;20085;-81
2020/12/07 01:29:16;;;;;;;23.33;10.73;;;4.70;87.40;;;;;;5043167;28;20109;-82
2020/12/07 01:31:41;;;;;;;27.00;11.87;;;4.70;87.10;;;;;;5040115;28;20025;-81
2020/12/07 01:34:07;;;;;;;29.50;12.23;;;4.70;87.00;;;;;;5039478;28;20025;-81
2020/12/07 01:36:32;;;;;;;28.90;12.97;;;4.70;86.80;;;;;;5038749;28;20436;-81
2020/12/07 01:38:58;;;;;;;24.67;11.80;;;4.60;86.80;;;;;;5039479;28;20022;-82
2020/12/07 01:41:24;;;;;;;24.87;11.57;;;4.60;86.80;;;;;;5039873;28;20064;-81
2020/12/07 01:43:49;;;;;;;26.07;11.77;;;4.60;87.40;;;;;;5039538;28;20481;-80
2020/12/07 01:46:24;;;;;;;24.90;12.00;;;4.60;87.40;;;;;;5038848;28;20039;-82
2020/12/07 01:48:51;;;;;;;28.43;12.53;;;4.60;87.70;;;;;;5039003;28;20119;-82
2020/12/07 01:51:18;;;;;;;25.23;12.47;;;4.60;88.10;;;;;;5038948;28;20021;-82
2020/12/07 01:53:45;;;;;;;29.80;14.13;;;4.60;88.50;;;;;;5040397;28;20029;-82
2020/12/07 01:56:29;;;;;;;32.57;13.83;;;4.60;89.20;;;;;;5040297;28;20038;-81
2020/12/07 01:58:57;;;;;;;31.27;13.87;;;4.60;89.80;;;;;;5040183;28;20025;-82
2020/12/07 02:01:23;;;;;;;33.43;14.17;;;4.60;90.00;;;;;;5038376;28;20026;-82
2020/12/07 02:03:48;;;;;;;32.10;14.80;;;4.60;90.10;;;;;;5039143;28;20072;-82
2020/12/07 02:06:14;;;;;;;33.00;14.37;;;4.70;90.20;;;;;;5038869;28;20036;-84
2020/12/07 02:08:40;;;;;;;31.73;14.07;;;4.70;90.30;;;;;;5039274;28;20474;-81
2020/12/07 02:11:06;;;;;;;34.53;15.80;;;4.70;90.40;;;;;;5039167;28;20040;-82
2020/12/07 02:13:31;;;;;;;30.17;14.13;;;4.70;90.40;;;;;;5038640;28;20026;-82
2020/12/07 02:15:57;;;;;;;31.90;15.00;;;4.60;90.50;;;;;;5039167;28;20120;-82
2020/12/07 02:18:23;;;;;;;32.73;15.13;;;4.70;90.50;;;;;;5039585;28;20036;-82
2020/12/07 02:20:49;;;;;;;32.27;15.57;;;4.70;90.50;;;;;;5038713;28;20143;-81
2020/12/07 02:23:15;;;;;;;32.17;14.93;;;4.70;90.60;;;;;;5038793;28;20025;-82
2020/12/07 02:25:41;;;;;;;34.83;15.63;;;4.70;90.70;;;;;;5038768;28;20187;-81
2020/12/07 02:28:07;;;;;;;32.37;15.50;;;4.70;90.70;;;;;;5038569;28;20521;-81
2020/12/07 02:30:32;;;;;;;35.07;15.40;;;4.70;90.70;;;;;;5038506;28;20021;-81
2020/12/07 02:32:58;;;;;;;40.73;16.97;;;4.80;90.70;;;;;;5038318;28;20025;-81
2020/12/07 02:35:23;;;;;;;36.37;16.57;;;4.70;90.70;;;;;;5039507;28;20033;-81
2020/12/07 02:37:49;;;;;;;33.43;16.13;;;4.70;90.80;;;;;;5037002;28;20033;-81
2020/12/07 02:40:15;;;;;;;35.53;15.50;;;4.70;90.80;;;;;;5036720;28;20065;-81
2020/12/07 02:42:42;;;;;;;39.50;16.80;;;4.70;90.90;;;;;;5035775;28;20021;-81
2020/12/07 02:45:17;;;;;;;34.20;15.20;;;4.70;90.90;;;;;;5036394;28;20030;-81
2020/12/07 02:47:43;;;;;;;30.37;14.40;;;4.70;90.90;;;;;;5035869;28;20413;-81
2020/12/07 02:50:11;;;;;;;33.80;14.93;;;4.70;90.90;;;;;;5036559;28;20025;-81
2020/12/07 02:52:37;;;;;;;36.70;15.63;;;4.70;90.90;;;;;;5035212;28;20252;-81
2020/12/07 02:55:11;;;;;;;33.50;14.43;;;4.70;90.90;;;;;;5036772;28;20033;-81
2020/12/07 02:57:38;;;;;;;32.50;14.93;;;4.70;91.10;;;;;;5034759;28;20026;-81
2020/12/07 03:00:06;;;;;;;35.10;14.90;;;4.70;90.90;;;;;;5036322;28;20029;-81
2020/12/07 03:02:33;;;;;;;30.00;14.00;;;4.70;91.00;;;;;;5035858;28;20026;-81
2020/12/07 03:04:59;;;;;;;31.20;14.80;;;4.70;91.00;;;;;;5035200;28;20496;-82
2020/12/07 03:07:25;;;;;;;31.77;14.27;;;4.70;91.00;;;;;;5034529;28;20120;-82
2020/12/07 03:09:50;;;;;;;30.83;14.73;;;4.70;91.00;;;;;;5034876;28;20115;-81
2020/12/07 03:12:16;;;;;;;31.67;14.73;;;4.70;91.00;;;;;;5035206;28;20068;-82
2020/12/07 03:14:41;;;;;;;27.80;13.27;;;4.70;91.10;;;;;;5035044;28;20573;-82
2020/12/07 03:17:07;;;;;;;27.13;13.63;;;4.70;91.10;;;;;;5036274;28;20018;-82
2020/12/07 03:19:32;;;;;;;22.97;12.50;;;4.70;91.10;;;;;;5034712;28;20030;-82
2020/12/07 03:21:58;;;;;;;24.90;12.00;;;4.70;91.00;;;;;;5034890;28;20030;-81
2020/12/07 03:24:24;;;;;;;25.87;12.53;;;4.70;91.00;;;;;;5034393;28;20033;-82
2020/12/07 03:26:50;;;;;;;24.07;11.53;;;4.70;90.90;;;;;;5034862;28;20038;-80
2020/12/07 03:29:15;;;;;;;21.07;10.77;;;4.80;90.90;;;;;;5034459;28;20076;-81
2020/12/07 03:31:41;;;;;;;23.27;11.60;;;4.70;90.90;;;;;;5035527;28;20469;-81
2020/12/07 03:34:08;;;;;;;24.23;12.13;;;4.80;90.90;;;;;;5035590;28;20037;-82
2020/12/07 03:36:34;;;;;;;24.43;11.50;;;4.80;90.80;;;;;;5034131;28;20057;-82
2020/12/07 03:39:00;;;;;;;23.23;10.93;;;4.70;90.80;;;;;;5034755;28;20360;-82
2020/12/07 03:41:26;;;;;;;20.00;10.73;;;4.70;90.70;;;;;;5034057;28;20080;-82
2020/12/07 03:43:52;;;;;;;20.67;11.30;;;4.70;90.70;;;;;;5035231;28;20417;-82
2020/12/07 03:46:18;;;;;;;21.83;11.77;;;4.70;90.70;;;;;;5034290;28;20466;-82
2020/12/07 03:48:44;;;;;;;20.80;11.07;;;4.70;90.70;;;;;;5033842;28;20052;-82
2020/12/07 03:51:09;;;;;;;23.77;11.63;;;4.70;90.80;;;;;;5034373;28;20048;-82
2020/12/07 03:53:38;;;;;;;20.87;11.00;;;4.70;90.80;;;;;;5033842;28;20486;-82
2020/12/07 03:56:05;;;;;;;20.83;11.03;;;4.70;90.80;;;;;;5034245;28;20099;-82
2020/12/07 03:58:31;;;;;;;21.63;11.67;;;4.70;90.80;;;;;;5033608;28;20036;-82
2020/12/07 04:00:57;;;;;;;23.87;11.70;;;4.70;90.80;;;;;;5034227;28;20026;-82
2020/12/07 04:03:23;;;;;;;22.50;10.97;;;4.70;90.80;;;;;;5034027;28;20049;-82
2020/12/07 04:08:42;;;;;;;21.70;10.63;;;4.70;90.90;;;;;;5018324;28;20073;-82
2020/12/07 04:11:07;;;;;;;18.93;9.93;;;4.70;90.90;;;;;;5034894;28;20115;-81
2020/12/07 04:13:33;;;;;;;21.60;11.03;;;4.70;90.90;;;;;;5033670;28;20374;-81
2020/12/07 04:16:02;;;;;;;24.57;11.17;;;4.70;90.80;;;;;;5033913;28;20151;-81
2020/12/07 04:18:27;;;;;;;23.33;10.40;;;4.70;90.80;;;;;;5033157;28;20037;-81
2020/12/07 04:20:53;;;;;;;19.47;9.20;;;4.70;91.10;;;;;;5033925;28;20026;-82
2020/12/07 04:23:18;;;;;;;20.87;10.67;;;4.70;90.70;;;;;;5033615;28;20021;-81
2020/12/07 04:25:44;;;;;;;21.50;9.83;;;4.70;90.70;;;;;;5033107;28;20548;-81
2020/12/07 04:28:10;;;;;;;21.37;10.30;;;4.70;90.90;;;;;;5033684;28;20042;-81
2020/12/07 04:30:39;;;;;;;17.67;9.83;;;4.70;90.70;;;;;;5033517;28;20113;-82
2020/12/07 04:33:04;;;;;;;19.07;9.40;;;4.70;90.70;;;;;;5033890;28;20029;-81
2020/12/07 04:35:30;;;;;;;18.87;9.50;;;4.70;90.90;;;;;;5033212;28;20425;-82
2020/12/07 04:37:55;;;;;;;17.93;9.33;;;4.70;90.50;;;;;;5033100;28;20494;-82
2020/12/07 04:40:23;;;;;;;18.23;9.03;;;4.70;90.50;;;;;;5033531;28;20026;-81
2020/12/07 04:42:50;;;;;;;18.80;9.40;;;4.70;90.60;;;;;;5032849;28;20467;-81
2020/12/07 04:45:15;;;;;;;14.93;8.57;;;4.70;90.40;;;;;;5034399;28;20025;-81
2020/12/07 04:47:44;;;;;;;19.90;9.43;;;4.80;90.50;;;;;;5033012;28;20034;-82
2020/12/07 04:50:10;;;;;;;19.43;9.67;;;4.80;90.40;;;;;;5033653;28;20033;-82
2020/12/07 04:52:36;;;;;;;18.03;8.90;;;4.80;90.30;;;;;;5034032;28;20491;-82
2020/12/07 04:55:04;;;;;;;16.33;8.50;;;4.80;90.30;;;;;;5033412;28;20117;-82
2020/12/07 04:57:30;;;;;;;19.50;8.97;;;4.80;90.30;;;;;;5033861;28;20025;-82
2020/12/07 04:59:57;;;;;;;16.67;8.80;;;4.80;90.30;;;;;;5033166;28;20116;-81
2020/12/07 05:02:25;;;;;;;19.20;8.90;;;4.80;90.60;;;;;;5032741;28;20026;-82
2020/12/07 05:04:52;;;;;;;16.50;8.70;;;4.80;90.40;;;;;;5033330;28;20389;-82
2020/12/07 05:07:18;;;;;;;18.60;9.47;;;4.80;90.40;;;;;;5034182;28;20022;-82
2020/12/07 05:09:44;;;;;;;15.80;7.97;;;4.80;90.40;;;;;;5032702;28;20044;-82
2020/12/07 05:12:21;;;;;;;17.20;8.87;;;4.80;90.40;;;;;;5032969;28;20022;-81
2020/12/07 05:14:47;;;;;;;16.50;8.40;;;4.80;90.40;;;;;;5033764;28;20084;-82
2020/12/07 05:17:16;;;;;;;15.87;8.30;;;4.80;90.40;;;;;;5033311;28;20022;-82
2020/12/07 05:19:45;;;;;;;16.30;8.57;;;4.80;90.40;;;;;;5032495;28;20029;-82
2020/12/07 05:22:15;;;;;;;19.87;8.90;;;4.80;90.40;;;;;;5033899;28;20025;-82
2020/12/07 05:24:41;;;;;;;19.20;9.23;;;4.80;90.40;;;;;;5032448;28;20034;-82
2020/12/07 05:27:10;;;;;;;20.23;10.03;;;4.80;90.40;;;;;;5032631;28;20045;-81
2020/12/07 05:29:51;;;;;;;18.10;9.57;;;4.80;90.40;;;;;;5032352;28;20046;-81
2020/12/07 05:32:17;;;;;;;19.50;9.88;;;4.80;90.40;;;;;;5032967;28;20037;-81
2020/12/07 05:34:43;;;;;;;19.63;9.50;;;4.80;90.30;;;;;;5032496;28;20029;-81
2020/12/07 05:37:09;;;;;;;19.87;10.27;;;4.80;90.30;;;;;;5032741;28;20028;-81
2020/12/07 05:39:34;;;;;;;21.00;9.73;;;4.80;90.30;;;;;;5032476;28;20029;-81
2020/12/07 05:42:01;;;;;;;22.07;10.97;;;4.80;90.30;;;;;;5032988;28;20030;-81
2020/12/07 05:44:28;;;;;;;20.83;10.03;;;4.80;90.30;;;;;;5032245;28;20112;-85
2020/12/07 05:46:56;;;;;;;24.77;11.07;;;4.80;90.30;;;;;;5032749;28;20138;-82
2020/12/07 05:49:23;;;;;;;22.23;10.70;;;4.80;90.40;;;;;;5033577;28;20028;-82
2020/12/07 05:52:02;;;;;;;21.53;10.73;;;4.80;90.30;;;;;;5031898;28;20025;-82
2020/12/07 05:54:29;;;;;;;24.40;10.57;;;4.80;90.30;;;;;;5032660;28;20025;-84
2020/12/07 05:57:02;;;;;;;21.90;10.40;;;4.80;90.30;;;;;;5032688;28;20049;-81
2020/12/07 05:59:35;;;;;;;21.27;10.80;;;4.80;90.40;;;;;;5032603;28;20033;-85
2020/12/07 06:02:03;;;;;;;23.73;11.07;;;4.90;90.30;;;;;;5032458;28;20026;-81
2020/12/07 06:04:29;;;;;;;20.13;10.27;;;4.90;90.30;;;;;;5032171;28;20466;-84
2020/12/07 06:06:59;;;;;;;22.90;10.67;;;4.90;90.30;;;;;;5032549;28;20036;-82
2020/12/07 06:09:29;;;;;;;25.40;11.53;;;4.90;90.20;;;;;;5033249;28;20487;-81
2020/12/07 06:12:13;;;;;;;25.30;11.43;;;4.90;90.20;;;;;;5032456;28;20028;-82
2020/12/07 06:14:40;;;;;;;26.43;11.70;;;4.80;90.20;;;;;;5035923;28;20109;-82
2020/12/07 06:17:06;;;;;;;23.07;10.50;;;4.80;90.30;;;;;;5037194;28;20033;-81
2020/12/07 06:19:32;;;;;;;22.30;10.83;;;4.90;90.40;;;;;;5035752;28;20048;-82
2020/12/07 06:22:01;;;;;;;22.97;11.13;;;4.90;90.20;;;;;;5036019;28;20053;-81
2020/12/07 06:24:41;;;;;;;23.87;10.70;;;5.00;90.10;;;;;;5036051;28;20128;-81
2020/12/07 06:27:12;;;;;;;20.50;10.13;;;5.00;90.10;;;;;;5035841;28;20044;-81
2020/12/07 06:29:37;;;;;;;24.13;11.53;;;4.90;90.10;;;;;;5035526;28;20056;-81
2020/12/07 06:32:04;;;;;;;25.33;11.33;;;4.90;90.20;;;;;;5035927;28;20026;-81
2020/12/07 06:34:41;;;;;;;21.30;11.03;;;5.00;90.10;;;;;;5036045;28;20030;-83
2020/12/07 06:37:11;;;;;;;25.13;11.30;;;5.00;90.10;;;;;;5036815;28;20029;-82
2020/12/07 06:39:44;;;;;;;24.30;12.30;;;5.00;90.10;;;;;;5035359;28;20367;-82
2020/12/07 06:42:12;;;;;;;28.27;12.40;;;5.00;90.20;;;;;;5035796;28;20021;-80
2020/12/07 06:44:46;;;;;;;25.17;11.93;;;5.00;90.20;;;;;;5036168;28;20025;-82
2020/12/07 06:47:23;;;;;;;25.30;11.90;;;5.00;90.20;;;;;;5035886;28;20087;-81
2020/12/07 06:49:57;;;;;;;26.30;11.87;;;5.00;90.20;;;;;;5036368;28;20520;-82
2020/12/07 06:52:26;;;;;;;25.90;12.07;;;5.00;90.20;;;;;;5035823;28;20026;-81
2020/12/07 06:55:09;;;;;;;27.50;13.10;;;5.00;90.20;;;;;;5034707;28;20044;-82
2020/12/07 06:57:38;;;;;;;27.50;12.03;;;5.00;90.10;;;;;;5034966;28;20037;-82
2020/12/07 07:00:27;;;;;;;25.00;12.27;;;5.00;90.10;;;;;;5035308;28;20036;-81
2020/12/07 07:02:54;;;;;;;26.70;11.80;;;5.00;90.10;;;;;;5034857;28;20171;-81
2020/12/07 07:05:24;;;;;;;25.43;12.43;;;5.00;90.20;;;;;;5035147;28;20056;-81
2020/12/07 07:07:50;;;;;;;28.70;12.90;;;5.00;90.20;;;;;;5034743;28;20128;-82
2020/12/07 07:10:17;;;;;;;28.57;12.87;;;5.00;90.20;;;;;;5035183;28;20033;-81
2020/12/07 07:12:44;;;;;;;24.33;12.07;;;5.00;90.10;;;;;;5034980;28;20022;-82
2020/12/07 07:15:12;;;;;;;24.27;12.80;;;5.00;90.10;;;;;;5036065;28;20038;-81
2020/12/07 07:17:39;;;;;;;26.43;13.10;;;5.00;90.10;;;;;;5034367;28;20124;-82
2020/12/07 07:20:10;;;;;;;26.30;12.23;;;5.00;90.10;;;;;;5034653;28;20040;-80
2020/12/07 07:22:39;;;;;;;28.10;12.80;;;5.00;90.10;;;;;;5034366;28;20036;-80
2020/12/07 07:25:39;;;;;;;30.30;13.53;;;5.00;90.10;;;;;;5034221;28;20037;-81
2020/12/07 07:28:05;;;;;;;32.40;14.67;;;5.00;90.10;;;;;;5042518;28;20044;-82
2020/12/07 07:30:32;;;;;;;32.73;14.20;;;5.10;90.10;;;;;;5058312;28;20035;-82
2020/12/07 07:32:58;;;;;;;28.70;13.73;;;5.00;90.10;;;;;;5057355;28;20067;-81
2020/12/07 07:35:26;;;;;;;28.60;13.43;;;5.10;90.10;;;;;;5058246;28;20032;-81
2020/12/07 07:37:52;;;;;;;29.00;13.63;;;5.10;90.10;;;;;;5057404;28;20086;-82
2020/12/07 07:40:24;;;;;;;30.20;14.27;;;5.10;90.00;;;;;;5057907;28;20453;-81
2020/12/07 07:42:57;;;;;;;23.20;11.88;;;5.10;90.10;;;;;;5057298;28;20032;-82
2020/12/07 07:45:31;;;;;;;27.83;13.23;;;5.10;90.00;;;;;;5075137;28;20028;-82
2020/12/07 07:50:51;;;;;;;27.87;12.70;;;5.10;90.00;;;;;;5075116;28;20052;-82
2020/12/07 08:16:28;;;;;;;25.47;12.97;;;5.40;89.10;;;;;;5063379;28;20392;-82
2020/12/07 08:18:57;;;;;;;24.80;13.03;;;5.40;88.70;;;;;;5056653;28;20029;-82
2020/12/07 08:21:28;;;;;;;25.50;12.70;;;5.40;88.60;;;;;;5057320;28;20020;-82
2020/12/07 08:23:55;;;;;;;27.67;12.60;;;5.30;88.30;;;;;;5056474;28;20056;-82
2020/12/07 08:26:21;;;;;;;24.83;12.57;;;5.30;88.10;;;;;;5056828;28;20538;-82
2020/12/07 08:28:52;;;;;;;25.90;12.70;;;5.30;88.30;;;;;;5055926;28;20052;-81
2020/12/07 08:31:19;;;;;;;25.98;12.93;;;5.30;88.30;;;;;;5056641;28;20523;-81
2020/12/07 08:34:14;;;;;;;24.03;12.47;;;5.30;88.40;;;;;;5056381;28;20057;-82
2020/12/07 08:36:45;;;;;;;25.53;12.23;;;5.30;88.30;;;;;;5055430;28;20563;-83
2020/12/07 08:39:11;;;;;;;25.17;12.43;;;5.30;88.60;;;;;;5056784;28;20377;-80
2020/12/07 08:41:38;;;;;;;24.33;12.93;;;5.30;88.30;;;;;;5074133;28;20032;-81
2020/12/07 08:44:07;;;;;;;23.70;12.43;;;5.40;88.20;;;;;;5056193;28;20024;-82
2020/12/07 08:46:35;;;;;;;27.50;13.03;;;5.40;88.20;;;;;;5056679;28;20029;-82
2020/12/07 08:49:03;;;;;;;24.93;12.57;;;5.40;88.30;;;;;;5056111;28;20040;-82
2020/12/07 08:51:32;;;;;;;23.33;12.57;;;5.50;88.20;;;;;;5056431;28;20376;-82
2020/12/07 08:53:58;;;;;;;26.67;13.63;;;5.50;88.30;;;;;;5055855;28;20028;-82
2020/12/07 08:56:24;;;;;;;23.70;12.23;;;5.50;88.60;;;;;;5056316;28;20039;-81
2020/12/07 08:58:50;;;;;;;21.33;11.60;;;5.50;88.20;;;;;;5055692;28;20021;-82
2020/12/07 09:01:16;;;;;;;23.83;11.27;;;5.50;87.90;;;;;;5056090;28;20029;-82
2020/12/07 09:03:43;;;;;;;21.97;11.43;;;5.50;88.00;;;;;;5055402;28;20135;-82
2020/12/07 09:06:12;;;;;;;22.97;11.27;;;5.50;88.00;;;;;;5056209;28;20380;-81
2020/12/07 09:08:37;;;;;;;24.43;12.23;;;5.50;87.90;;;;;;5056193;28;20032;-81
2020/12/07 09:11:04;;;;;;;26.23;12.00;;;5.50;87.70;;;;;;5055868;28;20069;-81
2020/12/07 09:13:30;;;;;;;23.23;11.63;;;5.50;87.50;;;;;;5056234;28;20028;-81
2020/12/07 09:15:56;;;;;;;23.43;12.50;;;5.50;87.60;;;;;;5055820;28;20028;-81
2020/12/07 09:18:22;;;;;;;24.00;12.03;;;5.50;87.50;;;;;;5056372;28;20051;-82
2020/12/07 09:20:48;;;;;;;26.23;12.53;;;5.60;87.50;;;;;;5055699;28;20107;-82
2020/12/07 09:23:14;;;;;;;21.70;10.90;;;5.60;87.50;;;;;;5038236;28;20021;-82
2020/12/07 09:25:41;;;;;;;24.43;11.60;;;5.60;87.40;;;;;;5053218;28;20041;-85
2020/12/07 09:28:07;;;;;;;24.33;11.13;;;5.70;87.10;;;;;;5030306;28;20080;-82
2020/12/07 09:30:33;;;;;;;20.80;11.03;;;5.70;86.90;;;;;;5019769;28;20510;-81
2020/12/07 09:32:59;;;;;;;21.33;11.00;;;5.70;86.70;;;;;;5023767;28;20421;-82
2020/12/07 09:35:25;;;;;;;21.13;11.27;;;5.70;86.30;;;;;;5030477;28;20095;-81
2020/12/07 09:37:50;;;;;;;19.57;10.63;;;5.80;86.30;;;;;;5021151;28;20488;-82
2020/12/07 09:40:16;;;;;;;20.73;10.63;;;5.80;86.30;;;;;;5022159;28;20087;-82
2020/12/07 09:42:42;;;;;;;19.17;10.37;;;5.80;86.20;;;;;;5020971;28;20075;-82
2020/12/07 09:45:10;;;;;;;21.20;11.53;;;5.80;86.40;;;;;;5021088;28;20034;-82
2020/12/07 09:47:36;;;;;;;23.87;10.33;;;5.90;86.30;;;;;;5023834;28;20457;-81
2020/12/07 09:50:07;;;;;;;21.70;10.57;;;6.00;86.10;;;;;;5021068;28;20030;-82
2020/12/07 09:52:33;;;;;;;21.60;10.70;;;6.00;86.40;;;;;;5022917;28;20533;-82
2020/12/07 09:54:59;;;;;;;23.43;10.27;;;6.20;86.10;;;;;;5026244;28;20033;-82
2020/12/07 09:57:25;;;;;;;21.67;10.90;;;6.20;85.80;;;;;;5026675;28;20459;-82
2020/12/07 09:59:51;;;;;;;21.27;10.97;;;6.20;85.80;;;;;;5035532;28;20032;-83
2020/12/07 10:02:18;;;;;;;20.37;10.27;;;6.30;85.70;;;;;;5019682;28;20029;-82
2020/12/07 10:04:44;;;;;;;21.40;9.97;;;6.30;85.60;;;;;;5019157;28;20025;-83
2020/12/07 10:07:10;;;;;;;17.03;9.03;;;6.30;84.70;;;;;;5019577;28;20107;-82
2020/12/07 10:09:37;;;;;;;19.20;10.07;;;6.20;84.90;;;;;;5019833;28;20055;-82
2020/12/07 10:12:03;;;;;;;18.03;9.63;;;6.20;84.30;;;;;;5036760;28;20026;-83
2020/12/07 10:14:29;;;;;;;18.33;10.03;;;6.20;84.60;;;;;;5019439;28;20061;-83
2020/12/07 10:16:56;;;;;;;20.67;10.40;;;6.20;84.60;;;;;;5019010;28;20029;-85
2020/12/07 10:19:22;;;;;;;16.13;9.10;;;6.20;84.50;;;;;;5020587;28;20038;-84
2020/12/07 10:21:47;;;;;;;15.63;8.20;;;6.20;84.50;;;;;;5019313;28;20378;-85
2020/12/07 10:24:13;;;;;;;16.90;8.70;;;6.20;83.90;;;;;;5019207;28;20025;-83
2020/12/07 10:26:39;;;;;;;18.07;9.20;;;6.30;83.40;;;;;;5018729;28;20037;-84
2020/12/07 10:29:05;;;;;;;15.87;7.87;;;6.40;83.50;;;;;;5042984;28;20037;-85
2020/12/07 10:31:31;;;;;;;14.60;7.90;;;6.40;83.20;;;;;;5055653;28;20029;-83
2020/12/07 10:33:57;;;;;;;17.17;7.93;;;6.40;82.60;;;;;;5056479;28;20086;-83
2020/12/07 10:36:24;;;;;;;14.40;7.93;;;6.50;82.90;;;;;;5055164;28;20079;-83
2020/12/07 10:38:52;;;;;;;13.20;7.13;;;6.50;82.20;;;;;;5055995;28;20028;-82
2020/12/07 10:41:18;;;;;;;15.10;6.93;;;6.60;81.10;;;;;;5055560;28;20067;-84
2020/12/07 10:43:45;;;;;;;11.87;6.40;;;6.50;80.20;;;;;;5055352;28;20064;-85
2020/12/07 10:46:14;;;;;;;13.20;6.73;;;6.60;80.30;;;;;;5055550;28;20032;-84
2020/12/07 10:48:40;;;;;;;13.43;6.67;;;6.60;80.10;;;;;;5055406;28;20040;-83
2020/12/07 10:51:11;;;;;;;11.40;6.20;;;6.70;80.20;;;;;;5054392;28;20053;-84
2020/12/07 10:53:36;;;;;;;13.17;6.47;;;6.70;79.80;;;;;;5055662;28;20025;-83
2020/12/07 10:56:02;;;;;;;14.23;6.53;;;6.80;79.20;;;;;;5054721;28;20033;-82
2020/12/07 10:58:28;;;;;;;14.47;6.97;;;6.80;78.40;;;;;;5043722;28;20026;-82
2020/12/07 11:00:53;;;;;;;12.63;6.40;;;6.80;78.80;;;;;;5034325;28;20032;-82
2020/12/07 11:03:19;;;;;;;11.17;5.67;;;6.90;78.40;;;;;;5035450;28;20025;-82
2020/12/07 11:05:45;;;;;;;12.50;6.13;;;7.00;78.10;;;;;;5032801;28;20474;-83
2020/12/07 11:08:28;;;;;;;10.77;5.90;;;7.10;77.20;;;;;;5036249;28;20405;-82
2020/12/07 11:10:55;;;;;;;11.90;6.17;;;7.20;77.30;;;;;;5035111;28;20025;-82
2020/12/07 11:15:49;;;;;;;11.60;5.83;;;7.00;76.50;;;;;;5035733;28;20036;-85
2020/12/07 11:18:15;;;;;;;12.53;6.30;;;7.00;76.70;;;;;;5034499;28;20021;-82
2020/12/07 11:20:41;;;;;;;10.93;5.67;;;7.00;76.00;;;;;;5034497;28;20028;-81
2020/12/07 11:23:06;;;;;;;11.93;6.00;;;7.00;76.40;;;;;;5034216;28;20021;-82
2020/12/07 11:25:32;;;;;;;10.67;5.67;;;6.90;76.00;;;;;;5034529;28;20128;-82
2020/12/07 11:27:58;;;;;;;11.40;6.40;;;6.80;75.50;;;;;;5036963;28;20033;-81
2020/12/07 11:30:23;;;;;;;9.90;6.00;;;6.80;75.60;;;;;;5037806;28;20438;-82
2020/12/07 11:32:49;;;;;;;9.93;5.70;;;6.80;76.20;;;;;;5037905;28;20486;-84
2020/12/07 11:35:15;;;;;;;10.97;5.37;;;6.90;75.90;;;;;;5037805;28;20056;-83
2020/12/07 11:37:40;;;;;;;11.53;6.17;;;7.00;76.40;;;;;;5055392;28;20436;-82
2020/12/07 11:45:45;;;;;;;11.17;5.93;;;7.00;75.60;;;;;;5055181;28;20083;-81
2020/12/07 11:48:11;;;;;;;12.17;6.33;;;7.00;75.60;;;;;;5037075;28;20033;-81
2020/12/07 11:50:38;;;;;;;14.60;6.90;;;7.00;76.40;;;;;;5055691;28;20056;-82
2020/12/07 11:53:04;;;;;;;14.53;6.97;;;7.00;76.80;;;;;;5037593;28;20028;-82
2020/12/07 11:55:30;;;;;;;14.97;6.97;;;6.90;77.00;;;;;;5037689;28;20033;-81
2020/12/07 11:57:56;;;;;;;14.43;7.13;;;6.90;77.00;;;;;;5036885;28;20025;-82
2020/12/07 12:00:22;;;;;;;13.07;6.63;;;6.90;76.90;;;;;;5037466;28;20120;-81
2020/12/07 12:02:48;;;;;;;13.33;7.03;;;6.90;77.20;;;;;;5037420;28;20036;-82
2020/12/07 12:05:14;;;;;;;14.27;7.40;;;6.90;77.20;;;;;;5036885;28;20029;-80
2020/12/07 12:07:40;;;;;;;13.80;6.57;;;7.00;77.40;;;;;;5037577;28;20393;-81
2020/12/07 12:10:05;;;;;;;12.77;6.83;;;7.00;77.50;;;;;;5036668;28;20028;-81
2020/12/07 12:12:31;;;;;;;14.17;7.63;;;6.90;77.60;;;;;;5018107;28;20044;-82
2020/12/07 12:14:57;;;;;;;13.77;6.97;;;6.90;77.30;;;;;;5034683;28;20029;-82
2020/12/07 12:17:22;;;;;;;13.17;6.90;;;6.90;77.20;;;;;;5017836;28;20104;-82
2020/12/07 12:19:48;;;;;;;13.67;7.10;;;6.80;77.20;;;;;;5017492;28;20083;-81
2020/12/07 12:22:13;;;;;;;14.07;6.50;;;6.80;77.60;;;;;;5016204;28;20075;-81
2020/12/07 12:24:39;;;;;;;12.20;6.80;;;6.90;77.50;;;;;;5017442;28;20029;-80
2020/12/07 12:27:05;;;;;;;11.27;6.60;;;6.80;77.30;;;;;;5016537;28;20076;-82
2020/12/07 12:29:31;;;;;;;13.23;7.37;;;6.90;77.50;;;;;;5044356;28;20075;-81
2020/12/07 12:31:57;;;;;;;12.63;7.10;;;6.80;77.40;;;;;;5053043;28;20037;-82
2020/12/07 12:34:23;;;;;;;11.60;6.37;;;6.80;77.60;;;;;;5053494;28;20036;-81
2020/12/07 12:36:49;;;;;;;12.47;6.43;;;6.70;77.30;;;;;;5053526;28;20537;-81
2020/12/07 12:39:16;;;;;;;13.20;6.50;;;6.60;78.00;;;;;;5052957;28;20061;-81
2020/12/07 12:41:42;;;;;;;14.27;7.20;;;6.70;77.80;;;;;;5052987;28;20032;-81
2020/12/07 12:44:08;;;;;;;12.47;6.67;;;6.70;77.50;;;;;;5052942;28;20071;-81
2020/12/07 12:46:37;;;;;;;11.83;6.33;;;6.70;77.80;;;;;;5054366;28;20083;-81
2020/12/07 12:49:04;;;;;;;11.57;6.27;;;6.80;77.40;;;;;;5052581;28;20132;-81
2020/12/07 12:51:29;;;;;;;11.43;6.07;;;6.90;76.30;;;;;;5054002;28;20032;-82
2020/12/07 12:53:55;;;;;;;14.60;7.13;;;6.90;76.60;;;;;;5052821;28;20024;-82
2020/12/07 12:56:22;;;;;;;15.83;7.07;;;6.90;76.30;;;;;;5052932;28;20052;-82
2020/12/07 12:58:48;;;;;;;15.27;7.30;;;6.90;76.00;;;;;;5054221;28;20120;-80
2020/12/07 13:01:14;;;;;;;14.37;7.10;;;6.80;76.70;;;;;;5052781;28;20029;-81
2020/12/07 13:03:41;;;;;;;14.03;6.83;;;6.80;76.80;;;;;;5053035;28;20032;-81
2020/12/07 13:06:07;;;;;;;13.00;7.33;;;7.00;76.20;;;;;;5053509;28;20198;-81
2020/12/07 13:08:33;;;;;;;12.70;6.40;;;7.00;75.50;;;;;;5052790;28;20028;-81
2020/12/07 13:10:59;;;;;;;12.70;6.47;;;7.10;75.50;;;;;;5052340;28;20032;-82
2020/12/07 13:13:25;;;;;;;14.10;6.57;;;7.10;75.50;;;;;;5052767;28;20021;-81
2020/12/07 13:16:00;;;;;;;13.03;6.43;;;7.00;75.90;;;;;;5053015;28;20115;-81
2020/12/07 13:18:29;;;;;;;12.77;6.50;;;7.10;75.60;;;;;;5053152;28;20021;-81